sensor_id;sensor_type;location;lat;lon;timestamp;P1;durP1;ratioP1;P2;durP2;ratioP2
12088;SDS011;6107;49.078;8.578;2023-09-18T00:00:01;4.47;;;2.42;;
12088;SDS011;6107;49.078;8.578;2023-09-18T00:02:29;5.43;;;1.80;;
12088;SDS011;6107;49.078;8.578;2023-09-18T00:04:56;9.43;;;1.63;;
12088;SDS011;6107;49.078;8.578;2023-09-18T00:07:21;3.88;;;1.65;;
12088;SDS011;6107;49.078;8.578;2023-09-18T00:09:50;2.90;;;1.60;;
12088;SDS011;6107;49.078;8.578;2023-09-18T00:12:16;5.90;;;1.70;;
12088;SDS011;6107;49.078;8.578;2023-09-18T00:14:42;7.88;;;1.60;;
12088;SDS011;6107;49.078;8.578;2023-09-18T00:17:07;3.22;;;1.70;;
12088;SDS011;6107;49.078;8.578;2023-09-18T00:19:33;14.90;;;2.63;;
12088;SDS011;6107;49.078;8.578;2023-09-18T00:21:58;2.85;;;1.98;;
12088;SDS011;6107;49.078;8.578;2023-09-18T00:24:26;6.95;;;1.40;;
12088;SDS011;6107;49.078;8.578;2023-09-18T00:26:51;3.55;;;1.98;;
12088;SDS011;6107;49.078;8.578;2023-09-18T00:29:17;4.80;;;2.00;;
12088;SDS011;6107;49.078;8.578;2023-09-18T00:31:43;2.38;;;1.75;;
12088;SDS011;6107;49.078;8.578;2023-09-18T00:34:09;6.38;;;2.03;;
12088;SDS011;6107;49.078;8.578;2023-09-18T00:36:34;2.67;;;1.58;;
12088;SDS011;6107;49.078;8.578;2023-09-18T00:39:00;3.60;;;1.50;;
12088;SDS011;6107;49.078;8.578;2023-09-18T00:41:25;4.30;;;1.77;;
12088;SDS011;6107;49.078;8.578;2023-09-18T00:43:51;3.50;;;1.70;;
12088;SDS011;6107;49.078;8.578;2023-09-18T00:46:16;9.60;;;1.95;;
12088;SDS011;6107;49.078;8.578;2023-09-18T00:48:42;6.45;;;2.08;;
12088;SDS011;6107;49.078;8.578;2023-09-18T00:51:08;4.80;;;1.73;;
12088;SDS011;6107;49.078;8.578;2023-09-18T00:53:35;4.53;;;1.95;;
12088;SDS011;6107;49.078;8.578;2023-09-18T00:56:02;1.98;;;1.50;;
12088;SDS011;6107;49.078;8.578;2023-09-18T00:58:28;2.17;;;1.48;;
12088;SDS011;6107;49.078;8.578;2023-09-18T01:00:54;7.80;;;1.92;;
12088;SDS011;6107;49.078;8.578;2023-09-18T01:03:20;4.35;;;2.05;;
12088;SDS011;6107;49.078;8.578;2023-09-18T01:05:46;10.10;;;1.73;;
12088;SDS011;6107;49.078;8.578;2023-09-18T01:08:12;3.58;;;1.77;;
12088;SDS011;6107;49.078;8.578;2023-09-18T01:10:40;4.43;;;1.75;;
12088;SDS011;6107;49.078;8.578;2023-09-18T01:13:28;4.15;;;2.72;;
12088;SDS011;6107;49.078;8.578;2023-09-18T01:16:02;1.85;;;1.50;;
12088;SDS011;6107;49.078;8.578;2023-09-18T01:18:35;3.58;;;1.80;;
12088;SDS011;6107;49.078;8.578;2023-09-18T01:21:00;3.75;;;1.95;;
12088;SDS011;6107;49.078;8.578;2023-09-18T01:23:26;8.52;;;1.80;;
12088;SDS011;6107;49.078;8.578;2023-09-18T01:25:51;4.00;;;1.75;;
12088;SDS011;6107;49.078;8.578;2023-09-18T01:28:17;2.78;;;1.70;;
12088;SDS011;6107;49.078;8.578;2023-09-18T01:30:42;8.00;;;3.10;;
12088;SDS011;6107;49.078;8.578;2023-09-18T01:33:08;3.28;;;1.80;;
12088;SDS011;6107;49.078;8.578;2023-09-18T01:35:35;3.15;;;1.60;;
12088;SDS011;6107;49.078;8.578;2023-09-18T01:38:02;11.13;;;1.77;;
12088;SDS011;6107;49.078;8.578;2023-09-18T01:40:28;7.38;;;2.15;;
12088;SDS011;6107;49.078;8.578;2023-09-18T01:42:54;3.38;;;1.70;;
12088;SDS011;6107;49.078;8.578;2023-09-18T01:45:20;3.47;;;2.28;;
12088;SDS011;6107;49.078;8.578;2023-09-18T01:47:45;3.75;;;2.00;;
12088;SDS011;6107;49.078;8.578;2023-09-18T01:50:11;2.67;;;1.60;;
12088;SDS011;6107;49.078;8.578;2023-09-18T01:52:37;4.00;;;2.20;;
12088;SDS011;6107;49.078;8.578;2023-09-18T01:55:03;3.03;;;2.10;;
12088;SDS011;6107;49.078;8.578;2023-09-18T01:57:32;5.57;;;1.98;;
12088;SDS011;6107;49.078;8.578;2023-09-18T01:59:58;2.63;;;1.73;;
12088;SDS011;6107;49.078;8.578;2023-09-18T02:02:24;4.80;;;1.98;;
12088;SDS011;6107;49.078;8.578;2023-09-18T02:04:49;2.33;;;1.50;;
12088;SDS011;6107;49.078;8.578;2023-09-18T02:07:15;4.07;;;1.70;;
12088;SDS011;6107;49.078;8.578;2023-09-18T02:09:40;3.42;;;2.45;;
12088;SDS011;6107;49.078;8.578;2023-09-18T02:12:06;5.00;;;2.20;;
12088;SDS011;6107;49.078;8.578;2023-09-18T02:14:32;10.18;;;2.00;;
12088;SDS011;6107;49.078;8.578;2023-09-18T02:16:58;7.97;;;1.98;;
12088;SDS011;6107;49.078;8.578;2023-09-18T02:19:24;5.85;;;2.22;;
12088;SDS011;6107;49.078;8.578;2023-09-18T02:21:51;5.78;;;2.05;;
12088;SDS011;6107;49.078;8.578;2023-09-18T02:24:16;13.40;;;2.03;;
12088;SDS011;6107;49.078;8.578;2023-09-18T02:26:42;7.80;;;1.80;;
12088;SDS011;6107;49.078;8.578;2023-09-18T02:29:08;3.88;;;1.98;;
12088;SDS011;6107;49.078;8.578;2023-09-18T02:31:39;4.25;;;1.90;;
12088;SDS011;6107;49.078;8.578;2023-09-18T02:34:05;3.50;;;1.83;;
12088;SDS011;6107;49.078;8.578;2023-09-18T02:36:32;5.47;;;2.00;;
12088;SDS011;6107;49.078;8.578;2023-09-18T02:38:58;6.15;;;1.70;;
12088;SDS011;6107;49.078;8.578;2023-09-18T02:41:23;7.60;;;2.28;;
12088;SDS011;6107;49.078;8.578;2023-09-18T02:43:48;10.60;;;2.08;;
12088;SDS011;6107;49.078;8.578;2023-09-18T02:46:14;8.43;;;2.35;;
12088;SDS011;6107;49.078;8.578;2023-09-18T02:48:39;4.70;;;1.75;;
12088;SDS011;6107;49.078;8.578;2023-09-18T02:51:05;10.05;;;1.63;;
12088;SDS011;6107;49.078;8.578;2023-09-18T02:53:31;5.70;;;1.98;;
12088;SDS011;6107;49.078;8.578;2023-09-18T02:55:57;5.25;;;1.52;;
12088;SDS011;6107;49.078;8.578;2023-09-18T02:58:24;2.75;;;1.63;;
12088;SDS011;6107;49.078;8.578;2023-09-18T03:00:54;4.38;;;1.65;;
12088;SDS011;6107;49.078;8.578;2023-09-18T03:03:22;9.82;;;2.00;;
12088;SDS011;6107;49.078;8.578;2023-09-18T03:05:48;6.88;;;2.10;;
12088;SDS011;6107;49.078;8.578;2023-09-18T03:08:13;3.38;;;1.80;;
12088;SDS011;6107;49.078;8.578;2023-09-18T03:10:40;8.68;;;2.08;;
12088;SDS011;6107;49.078;8.578;2023-09-18T03:13:07;9.73;;;1.50;;
12088;SDS011;6107;49.078;8.578;2023-09-18T03:15:33;6.35;;;1.63;;
12088;SDS011;6107;49.078;8.578;2023-09-18T03:18:00;5.75;;;2.03;;
12088;SDS011;6107;49.078;8.578;2023-09-18T03:20:27;8.65;;;1.45;;
12088;SDS011;6107;49.078;8.578;2023-09-18T03:22:54;4.40;;;2.20;;
12088;SDS011;6107;49.078;8.578;2023-09-18T03:25:24;5.25;;;2.28;;
12088;SDS011;6107;49.078;8.578;2023-09-18T03:27:50;6.60;;;1.70;;
12088;SDS011;6107;49.078;8.578;2023-09-18T03:30:16;11.88;;;1.88;;
12088;SDS011;6107;49.078;8.578;2023-09-18T03:32:42;5.47;;;2.47;;
12088;SDS011;6107;49.078;8.578;2023-09-18T03:35:09;9.48;;;2.20;;
12088;SDS011;6107;49.078;8.578;2023-09-18T03:37:42;4.53;;;1.65;;
12088;SDS011;6107;49.078;8.578;2023-09-18T03:40:11;5.30;;;1.73;;
12088;SDS011;6107;49.078;8.578;2023-09-18T03:42:38;7.78;;;2.47;;
12088;SDS011;6107;49.078;8.578;2023-09-18T03:45:05;3.58;;;1.83;;
12088;SDS011;6107;49.078;8.578;2023-09-18T03:47:31;5.95;;;1.70;;
12088;SDS011;6107;49.078;8.578;2023-09-18T03:49:58;10.60;;;2.35;;
12088;SDS011;6107;49.078;8.578;2023-09-18T03:52:24;7.75;;;2.13;;
12088;SDS011;6107;49.078;8.578;2023-09-18T03:54:49;6.22;;;2.13;;
12088;SDS011;6107;49.078;8.578;2023-09-18T03:57:16;4.82;;;2.13;;
12088;SDS011;6107;49.078;8.578;2023-09-18T03:59:41;5.25;;;1.70;;
12088;SDS011;6107;49.078;8.578;2023-09-18T04:02:07;8.55;;;2.13;;
12088;SDS011;6107;49.078;8.578;2023-09-18T04:04:32;13.40;;;2.38;;
12088;SDS011;6107;49.078;8.578;2023-09-18T04:06:58;6.70;;;1.90;;
12088;SDS011;6107;49.078;8.578;2023-09-18T04:09:23;7.78;;;1.85;;
12088;SDS011;6107;49.078;8.578;2023-09-18T04:11:49;7.53;;;1.90;;
12088;SDS011;6107;49.078;8.578;2023-09-18T04:14:15;15.50;;;2.10;;
12088;SDS011;6107;49.078;8.578;2023-09-18T04:16:40;12.15;;;2.28;;
12088;SDS011;6107;49.078;8.578;2023-09-18T04:19:07;7.13;;;1.75;;
12088;SDS011;6107;49.078;8.578;2023-09-18T04:21:33;6.25;;;1.88;;
12088;SDS011;6107;49.078;8.578;2023-09-18T04:23:58;12.38;;;2.10;;
12088;SDS011;6107;49.078;8.578;2023-09-18T04:26:24;5.30;;;1.52;;
12088;SDS011;6107;49.078;8.578;2023-09-18T04:28:54;5.47;;;1.83;;
12088;SDS011;6107;49.078;8.578;2023-09-18T04:31:20;10.68;;;1.92;;
12088;SDS011;6107;49.078;8.578;2023-09-18T04:33:46;8.90;;;1.73;;
12088;SDS011;6107;49.078;8.578;2023-09-18T04:36:11;5.97;;;2.20;;
12088;SDS011;6107;49.078;8.578;2023-09-18T04:38:37;9.88;;;2.55;;
12088;SDS011;6107;49.078;8.578;2023-09-18T04:41:02;6.22;;;2.00;;
12088;SDS011;6107;49.078;8.578;2023-09-18T04:43:28;15.18;;;3.05;;
12088;SDS011;6107;49.078;8.578;2023-09-18T04:45:56;8.18;;;2.28;;
12088;SDS011;6107;49.078;8.578;2023-09-18T04:48:22;6.35;;;1.42;;
12088;SDS011;6107;49.078;8.578;2023-09-18T04:50:48;6.53;;;1.85;;
12088;SDS011;6107;49.078;8.578;2023-09-18T04:53:13;7.95;;;1.63;;
12088;SDS011;6107;49.078;8.578;2023-09-18T04:55:39;12.65;;;2.53;;
12088;SDS011;6107;49.078;8.578;2023-09-18T04:58:05;15.73;;;2.35;;
12088;SDS011;6107;49.078;8.578;2023-09-18T05:00:31;9.35;;;2.28;;
12088;SDS011;6107;49.078;8.578;2023-09-18T05:02:58;3.90;;;1.50;;
12088;SDS011;6107;49.078;8.578;2023-09-18T05:05:26;6.38;;;2.10;;
12088;SDS011;6107;49.078;8.578;2023-09-18T05:07:52;4.68;;;1.77;;
12088;SDS011;6107;49.078;8.578;2023-09-18T05:10:18;6.72;;;2.00;;
12088;SDS011;6107;49.078;8.578;2023-09-18T05:12:43;4.63;;;1.73;;
12088;SDS011;6107;49.078;8.578;2023-09-18T05:15:09;3.45;;;1.70;;
12088;SDS011;6107;49.078;8.578;2023-09-18T05:17:42;5.63;;;1.25;;
12088;SDS011;6107;49.078;8.578;2023-09-18T05:20:12;4.57;;;1.83;;
12088;SDS011;6107;49.078;8.578;2023-09-18T05:22:39;5.63;;;1.98;;
12088;SDS011;6107;49.078;8.578;2023-09-18T05:25:05;7.45;;;2.03;;
12088;SDS011;6107;49.078;8.578;2023-09-18T05:27:31;5.47;;;1.20;;
12088;SDS011;6107;49.078;8.578;2023-09-18T05:29:57;8.57;;;1.90;;
12088;SDS011;6107;49.078;8.578;2023-09-18T05:32:23;7.30;;;1.75;;
12088;SDS011;6107;49.078;8.578;2023-09-18T05:34:48;8.43;;;2.38;;
12088;SDS011;6107;49.078;8.578;2023-09-18T05:37:14;10.35;;;1.90;;
12088;SDS011;6107;49.078;8.578;2023-09-18T05:39:40;7.32;;;1.90;;
12088;SDS011;6107;49.078;8.578;2023-09-18T05:42:06;11.98;;;2.28;;
12088;SDS011;6107;49.078;8.578;2023-09-18T05:44:31;4.55;;;2.05;;
12088;SDS011;6107;49.078;8.578;2023-09-18T05:46:58;12.52;;;1.33;;
12088;SDS011;6107;49.078;8.578;2023-09-18T05:49:23;8.88;;;1.92;;
12088;SDS011;6107;49.078;8.578;2023-09-18T05:51:49;2.08;;;1.20;;
12088;SDS011;6107;49.078;8.578;2023-09-18T05:54:14;8.45;;;2.22;;
12088;SDS011;6107;49.078;8.578;2023-09-18T05:56:40;5.25;;;1.42;;
12088;SDS011;6107;49.078;8.578;2023-09-18T05:59:05;3.67;;;1.50;;
12088;SDS011;6107;49.078;8.578;2023-09-18T06:01:31;5.85;;;1.80;;
12088;SDS011;6107;49.078;8.578;2023-09-18T06:03:57;5.10;;;1.42;;
12088;SDS011;6107;49.078;8.578;2023-09-18T06:06:23;6.65;;;2.25;;
12088;SDS011;6107;49.078;8.578;2023-09-18T06:08:50;7.57;;;1.98;;
12088;SDS011;6107;49.078;8.578;2023-09-18T06:11:18;10.07;;;2.38;;
12088;SDS011;6107;49.078;8.578;2023-09-18T06:13:43;10.25;;;1.58;;
12088;SDS011;6107;49.078;8.578;2023-09-18T06:16:09;3.05;;;1.13;;
12088;SDS011;6107;49.078;8.578;2023-09-18T06:18:34;4.47;;;1.67;;
12088;SDS011;6107;49.078;8.578;2023-09-18T06:21:03;6.93;;;1.65;;
12088;SDS011;6107;49.078;8.578;2023-09-18T06:23:29;8.20;;;2.30;;
12088;SDS011;6107;49.078;8.578;2023-09-18T06:25:55;4.82;;;1.83;;
12088;SDS011;6107;49.078;8.578;2023-09-18T06:28:22;6.88;;;1.75;;
12088;SDS011;6107;49.078;8.578;2023-09-18T06:30:47;5.60;;;1.70;;
12088;SDS011;6107;49.078;8.578;2023-09-18T06:33:13;6.32;;;1.98;;
12088;SDS011;6107;49.078;8.578;2023-09-18T06:35:39;7.13;;;1.35;;
12088;SDS011;6107;49.078;8.578;2023-09-18T06:40:32;12.70;;;1.92;;
12088;SDS011;6107;49.078;8.578;2023-09-18T06:42:58;8.27;;;2.05;;
12088;SDS011;6107;49.078;8.578;2023-09-18T06:45:27;4.60;;;1.60;;
12088;SDS011;6107;49.078;8.578;2023-09-18T06:47:53;11.93;;;1.77;;
12088;SDS011;6107;49.078;8.578;2023-09-18T06:50:19;9.88;;;1.85;;
12088;SDS011;6107;49.078;8.578;2023-09-18T06:52:44;6.47;;;2.08;;
12088;SDS011;6107;49.078;8.578;2023-09-18T06:55:11;12.23;;;2.40;;
12088;SDS011;6107;49.078;8.578;2023-09-18T06:57:37;9.90;;;1.90;;
12088;SDS011;6107;49.078;8.578;2023-09-18T07:00:02;9.10;;;2.47;;
12088;SDS011;6107;49.078;8.578;2023-09-18T07:02:30;10.38;;;2.88;;
12088;SDS011;6107;49.078;8.578;2023-09-18T07:04:55;7.60;;;2.80;;
12088;SDS011;6107;49.078;8.578;2023-09-18T07:07:21;20.20;;;1.92;;
12088;SDS011;6107;49.078;8.578;2023-09-18T07:09:50;9.18;;;1.73;;
12088;SDS011;6107;49.078;8.578;2023-09-18T07:12:16;6.50;;;1.92;;
12088;SDS011;6107;49.078;8.578;2023-09-18T07:14:44;4.88;;;1.75;;
12088;SDS011;6107;49.078;8.578;2023-09-18T07:17:10;3.78;;;2.05;;
12088;SDS011;6107;49.078;8.578;2023-09-18T07:19:36;12.98;;;2.63;;
12088;SDS011;6107;49.078;8.578;2023-09-18T07:22:01;6.65;;;2.72;;
12088;SDS011;6107;49.078;8.578;2023-09-18T07:24:27;17.52;;;2.00;;
12088;SDS011;6107;49.078;8.578;2023-09-18T07:26:53;13.68;;;1.95;;
12088;SDS011;6107;49.078;8.578;2023-09-18T07:29:19;4.05;;;2.60;;
12088;SDS011;6107;49.078;8.578;2023-09-18T07:31:45;6.93;;;1.92;;
12088;SDS011;6107;49.078;8.578;2023-09-18T07:34:12;4.63;;;1.67;;
12088;SDS011;6107;49.078;8.578;2023-09-18T07:36:38;5.88;;;1.70;;
12088;SDS011;6107;49.078;8.578;2023-09-18T07:39:05;7.05;;;1.73;;
12088;SDS011;6107;49.078;8.578;2023-09-18T07:41:31;7.65;;;1.25;;
12088;SDS011;6107;49.078;8.578;2023-09-18T07:43:58;4.68;;;1.88;;
12088;SDS011;6107;49.078;8.578;2023-09-18T07:46:24;4.38;;;1.63;;
12088;SDS011;6107;49.078;8.578;2023-09-18T07:48:50;5.55;;;1.50;;
12088;SDS011;6107;49.078;8.578;2023-09-18T07:51:15;4.88;;;1.10;;
12088;SDS011;6107;49.078;8.578;2023-09-18T07:53:41;5.65;;;1.80;;
12088;SDS011;6107;49.078;8.578;2023-09-18T07:56:07;3.03;;;1.02;;
12088;SDS011;6107;49.078;8.578;2023-09-18T07:58:33;3.75;;;1.70;;
12088;SDS011;6107;49.078;8.578;2023-09-18T08:01:03;2.25;;;1.25;;
12088;SDS011;6107;49.078;8.578;2023-09-18T08:03:31;2.30;;;0.90;;
12088;SDS011;6107;49.078;8.578;2023-09-18T08:05:57;4.13;;;1.00;;
12088;SDS011;6107;49.078;8.578;2023-09-18T08:08:22;3.13;;;1.27;;
12088;SDS011;6107;49.078;8.578;2023-09-18T08:10:49;4.10;;;1.67;;
12088;SDS011;6107;49.078;8.578;2023-09-18T08:13:16;2.80;;;0.85;;
12088;SDS011;6107;49.078;8.578;2023-09-18T08:15:42;5.88;;;1.25;;
12088;SDS011;6107;49.078;8.578;2023-09-18T08:18:08;3.45;;;0.73;;
12088;SDS011;6107;49.078;8.578;2023-09-18T08:20:35;3.45;;;1.02;;
12088;SDS011;6107;49.078;8.578;2023-09-18T08:23:02;2.85;;;0.95;;
12088;SDS011;6107;49.078;8.578;2023-09-18T08:25:30;8.32;;;0.70;;
12088;SDS011;6107;49.078;8.578;2023-09-18T08:27:56;2.55;;;0.70;;
12088;SDS011;6107;49.078;8.578;2023-09-18T08:30:21;6.38;;;1.02;;
12088;SDS011;6107;49.078;8.578;2023-09-18T08:32:47;3.33;;;0.70;;
12088;SDS011;6107;49.078;8.578;2023-09-18T08:35:12;3.35;;;1.48;;
12088;SDS011;6107;49.078;8.578;2023-09-18T08:37:40;0.95;;;0.70;;
12088;SDS011;6107;49.078;8.578;2023-09-18T08:40:12;1.08;;;0.80;;
12088;SDS011;6107;49.078;8.578;2023-09-18T08:42:39;4.85;;;1.23;;
12088;SDS011;6107;49.078;8.578;2023-09-18T08:45:09;5.53;;;0.85;;
12088;SDS011;6107;49.078;8.578;2023-09-18T08:47:39;2.85;;;0.90;;
12088;SDS011;6107;49.078;8.578;2023-09-18T08:50:06;1.75;;;0.55;;
12088;SDS011;6107;49.078;8.578;2023-09-18T08:52:34;2.97;;;0.82;;
12088;SDS011;6107;49.078;8.578;2023-09-18T08:55:00;1.55;;;0.88;;
12088;SDS011;6107;49.078;8.578;2023-09-18T08:57:27;2.75;;;0.93;;
12088;SDS011;6107;49.078;8.578;2023-09-18T08:59:54;5.03;;;0.85;;
12088;SDS011;6107;49.078;8.578;2023-09-18T09:02:20;4.50;;;0.73;;
12088;SDS011;6107;49.078;8.578;2023-09-18T09:04:47;1.58;;;0.70;;
12088;SDS011;6107;49.078;8.578;2023-09-18T09:07:13;5.88;;;1.05;;
12088;SDS011;6107;49.078;8.578;2023-09-18T09:09:38;2.03;;;0.95;;
12088;SDS011;6107;49.078;8.578;2023-09-18T09:12:05;3.70;;;1.35;;
12088;SDS011;6107;49.078;8.578;2023-09-18T09:14:31;3.75;;;0.70;;
12088;SDS011;6107;49.078;8.578;2023-09-18T09:16:56;3.58;;;0.88;;
12088;SDS011;6107;49.078;8.578;2023-09-18T09:19:29;1.35;;;0.70;;
12088;SDS011;6107;49.078;8.578;2023-09-18T09:22:01;6.30;;;1.00;;
12088;SDS011;6107;49.078;8.578;2023-09-18T09:24:37;3.92;;;0.70;;
12088;SDS011;6107;49.078;8.578;2023-09-18T09:27:07;1.45;;;0.50;;
12088;SDS011;6107;49.078;8.578;2023-09-18T09:29:33;3.28;;;1.33;;
12088;SDS011;6107;49.078;8.578;2023-09-18T09:34:58;2.22;;;0.75;;
12088;SDS011;6107;49.078;8.578;2023-09-18T09:37:29;0.40;;;0.40;;
12088;SDS011;6107;49.078;8.578;2023-09-18T09:39:56;3.45;;;0.77;;
12088;SDS011;6107;49.078;8.578;2023-09-18T09:42:21;0.75;;;0.70;;
12088;SDS011;6107;49.078;8.578;2023-09-18T09:45:15;4.75;;;0.80;;
12088;SDS011;6107;49.078;8.578;2023-09-18T09:47:41;5.80;;;0.88;;
12088;SDS011;6107;49.078;8.578;2023-09-18T09:50:07;2.47;;;0.70;;
12088;SDS011;6107;49.078;8.578;2023-09-18T09:52:35;0.75;;;0.70;;
12088;SDS011;6107;49.078;8.578;2023-09-18T09:55:01;4.28;;;0.80;;
12088;SDS011;6107;49.078;8.578;2023-09-18T09:57:30;9.35;;;0.68;;
12088;SDS011;6107;49.078;8.578;2023-09-18T10:00:02;4.90;;;0.82;;
12088;SDS011;6107;49.078;8.578;2023-09-18T10:02:47;2.28;;;0.65;;
12088;SDS011;6107;49.078;8.578;2023-09-18T10:05:14;4.32;;;0.50;;
12088;SDS011;6107;49.078;8.578;2023-09-18T10:07:43;3.03;;;0.73;;
12088;SDS011;6107;49.078;8.578;2023-09-18T10:13:47;4.35;;;0.88;;
12088;SDS011;6107;49.078;8.578;2023-09-18T10:16:30;1.42;;;0.70;;
12088;SDS011;6107;49.078;8.578;2023-09-18T10:24:36;6.55;;;0.73;;
12088;SDS011;6107;49.078;8.578;2023-09-18T14:17:30;2.63;;;1.10;;
12088;SDS011;6107;49.078;8.578;2023-09-18T14:19:55;1.55;;;0.75;;
12088;SDS011;6107;49.078;8.578;2023-09-18T14:22:24;1.75;;;0.50;;
12088;SDS011;6107;49.078;8.578;2023-09-18T14:24:51;3.30;;;0.70;;
12088;SDS011;6107;49.078;8.578;2023-09-18T14:27:16;0.85;;;0.70;;
12088;SDS011;6107;49.078;8.578;2023-09-18T14:29:42;1.67;;;0.85;;
12088;SDS011;6107;49.078;8.578;2023-09-18T14:32:07;5.43;;;0.65;;
12088;SDS011;6107;49.078;8.578;2023-09-18T14:34:33;1.50;;;0.60;;
12088;SDS011;6107;49.078;8.578;2023-09-18T14:37:00;2.97;;;0.77;;
12088;SDS011;6107;49.078;8.578;2023-09-18T14:39:30;4.55;;;1.73;;
12088;SDS011;6107;49.078;8.578;2023-09-18T15:53:10;3.30;;;0.80;;
12088;SDS011;6107;49.078;8.578;2023-09-18T15:55:36;1.10;;;0.70;;
12088;SDS011;6107;49.078;8.578;2023-09-18T15:58:02;5.35;;;0.73;;
12088;SDS011;6107;49.078;8.578;2023-09-18T16:00:28;3.55;;;0.80;;
12088;SDS011;6107;49.078;8.578;2023-09-18T16:02:53;0.82;;;0.60;;
12088;SDS011;6107;49.078;8.578;2023-09-18T16:15:47;1.27;;;0.57;;
12088;SDS011;6107;49.078;8.578;2023-09-18T16:22:09;0.77;;;0.60;;
12088;SDS011;6107;49.078;8.578;2023-09-18T16:24:41;1.67;;;0.93;;
12088;SDS011;6107;49.078;8.578;2023-09-18T16:27:08;3.45;;;0.75;;
12088;SDS011;6107;49.078;8.578;2023-09-18T16:29:33;1.23;;;0.68;;
12088;SDS011;6107;49.078;8.578;2023-09-18T16:31:59;1.10;;;0.60;;
12088;SDS011;6107;49.078;8.578;2023-09-18T16:34:25;0.95;;;0.50;;
12088;SDS011;6107;49.078;8.578;2023-09-18T16:36:50;3.45;;;0.95;;
12088;SDS011;6107;49.078;8.578;2023-09-18T16:39:16;2.88;;;0.95;;
12088;SDS011;6107;49.078;8.578;2023-09-18T17:33:03;5.82;;;0.85;;
12088;SDS011;6107;49.078;8.578;2023-09-18T17:35:29;3.95;;;0.35;;
12088;SDS011;6107;49.078;8.578;2023-09-18T17:37:57;7.97;;;0.82;;
12088;SDS011;6107;49.078;8.578;2023-09-18T17:40:23;5.22;;;0.50;;
12088;SDS011;6107;49.078;8.578;2023-09-18T17:42:49;5.43;;;0.50;;
12088;SDS011;6107;49.078;8.578;2023-09-18T17:45:15;2.58;;;0.50;;
12088;SDS011;6107;49.078;8.578;2023-09-18T17:47:42;0.50;;;0.13;;
12088;SDS011;6107;49.078;8.578;2023-09-18T17:50:08;3.90;;;0.50;;
12088;SDS011;6107;49.078;8.578;2023-09-18T17:52:33;5.85;;;0.60;;
12088;SDS011;6107;49.078;8.578;2023-09-18T17:54:59;3.55;;;0.40;;
12088;SDS011;6107;49.078;8.578;2023-09-18T17:57:26;1.52;;;0.38;;
12088;SDS011;6107;49.078;8.578;2023-09-18T17:59:52;3.60;;;1.15;;
12088;SDS011;6107;49.078;8.578;2023-09-18T18:02:18;4.50;;;1.20;;
12088;SDS011;6107;49.078;8.578;2023-09-18T18:04:43;3.20;;;0.73;;
12088;SDS011;6107;49.078;8.578;2023-09-18T18:07:09;2.17;;;0.30;;
12088;SDS011;6107;49.078;8.578;2023-09-18T18:09:35;1.55;;;0.52;;
12088;SDS011;6107;49.078;8.578;2023-09-18T18:12:01;1.30;;;0.63;;
12088;SDS011;6107;49.078;8.578;2023-09-18T18:14:29;1.35;;;0.50;;
12088;SDS011;6107;49.078;8.578;2023-09-18T18:16:55;0.73;;;0.43;;
12088;SDS011;6107;49.078;8.578;2023-09-18T18:19:21;6.13;;;0.50;;
12088;SDS011;6107;49.078;8.578;2023-09-18T18:21:47;1.50;;;0.50;;
12088;SDS011;6107;49.078;8.578;2023-09-18T18:24:13;7.50;;;0.82;;
12088;SDS011;6107;49.078;8.578;2023-09-18T18:26:39;0.80;;;0.47;;
12088;SDS011;6107;49.078;8.578;2023-09-18T18:29:05;3.85;;;0.63;;
12088;SDS011;6107;49.078;8.578;2023-09-18T18:31:31;4.00;;;0.70;;
12088;SDS011;6107;49.078;8.578;2023-09-18T18:33:57;1.85;;;0.50;;
12088;SDS011;6107;49.078;8.578;2023-09-18T18:36:27;4.82;;;0.50;;
12088;SDS011;6107;49.078;8.578;2023-09-18T18:38:53;1.13;;;0.50;;
12088;SDS011;6107;49.078;8.578;2023-09-18T19:46:50;3.15;;;0.40;;
12088;SDS011;6107;49.078;8.578;2023-09-18T19:49:54;2.30;;;0.52;;
12088;SDS011;6107;49.078;8.578;2023-09-18T20:24:16;0.65;;;0.40;;
12088;SDS011;6107;49.078;8.578;2023-09-18T20:58:15;0.30;;;0.30;;
12088;SDS011;6107;49.078;8.578;2023-09-18T21:40:27;1.25;;;0.50;;
12088;SDS011;6107;49.078;8.578;2023-09-18T21:50:37;0.40;;;0.40;;
12088;SDS011;6107;49.078;8.578;2023-09-18T22:01:36;3.03;;;0.45;;
